createdAt,value
2023-01-27T00:04:31.344Z,98865.19
2023-01-27T00:09:53.109Z,98859.97
2023-01-27T00:15:16.728Z,98862.81
2023-01-27T00:20:57.029Z,98864.75
2023-01-27T00:26:19.973Z,98849.91
2023-01-27T00:32:00.200Z,98850.19
2023-01-27T00:37:21.964Z,98851.66
2023-01-27T00:42:44.095Z,98856.22
2023-01-27T00:48:05.885Z,98853.53
2023-01-27T00:53:27.636Z,98856.94
2023-01-27T00:58:49.385Z,98859.47
2023-01-27T01:04:11.212Z,98861.03
2023-01-27T01:09:32.989Z,98863.84
2023-01-27T01:14:54.746Z,98864.09
2023-01-27T01:20:16.644Z,98874.31
2023-01-27T01:25:38.573Z,98867.06
2023-01-27T01:31:08.487Z,98873.59
2023-01-27T01:36:30.383Z,98870.59
2023-01-27T01:41:52.140Z,98867.25
2023-01-27T01:47:17.925Z,98871.63
2023-01-27T01:52:40.285Z,98859.00
2023-01-27T01:58:02.945Z,98860.66
2023-01-27T02:03:26.033Z,98844.97
2023-01-27T02:08:50.550Z,98834.50
2023-01-27T02:14:14.735Z,98841.31
2023-01-27T02:20:03.292Z,98832.69
2023-01-27T02:25:24.962Z,98832.94
2023-01-27T02:30:46.737Z,98832.06
2023-01-27T02:36:15.614Z,98823.38
2023-01-27T02:41:40.829Z,98831.03
2023-01-27T02:47:02.565Z,98842.28
2023-01-27T02:52:25.326Z,98836.94
2023-01-27T02:57:47.068Z,98828.50
2023-01-27T03:03:08.831Z,98831.81
2023-01-27T03:08:30.582Z,98822.53
2023-01-27T03:13:52.290Z,98825.28
2023-01-27T03:19:14.010Z,98822.84
2023-01-27T03:24:38.005Z,98828.59
2023-01-27T03:30:01.196Z,98828.63
2023-01-27T03:35:34.364Z,98842.38
2023-01-27T03:41:14.875Z,98839.72
2023-01-27T03:46:36.688Z,98840.75
2023-01-27T03:51:58.947Z,98836.97
2023-01-27T03:57:20.643Z,98838.63
2023-01-27T04:03:00.829Z,98839.47
2023-01-27T04:08:22.643Z,98848.25
2023-01-27T04:13:44.678Z,98836.47
2023-01-27T04:19:08.883Z,98844.06
2023-01-27T04:24:30.983Z,98847.38
2023-01-27T04:29:53.264Z,98855.03
2023-01-27T04:35:15.183Z,98852.59
2023-01-27T04:40:37.048Z,98861.13
2023-01-27T04:45:58.904Z,98856.56
2023-01-27T04:51:20.736Z,98858.44
2023-01-27T04:56:58.025Z,98851.88
2023-01-27T05:02:19.758Z,98847.50
2023-01-27T05:07:41.529Z,98856.88
2023-01-27T05:13:03.280Z,98862.69
2023-01-27T05:18:24.976Z,98860.19
2023-01-27T05:23:46.849Z,98859.53
2023-01-27T05:29:09.421Z,98863.63
2023-01-27T05:34:31.160Z,98879.16
2023-01-27T05:39:52.872Z,98880.03
2023-01-27T05:45:15.091Z,98892.84
2023-01-27T05:50:36.889Z,98893.03
2023-01-27T05:55:58.706Z,98882.69
2023-01-27T06:01:22.817Z,98886.09
2023-01-27T06:06:44.532Z,98873.94
2023-01-27T06:12:06.575Z,98887.69
2023-01-27T06:17:28.353Z,98886.81
2023-01-27T06:22:50.564Z,98891.97
2023-01-27T06:28:27.878Z,98885.72
2023-01-27T06:33:51.364Z,98891.97
2023-01-27T06:39:13.188Z,98888.72
2023-01-27T06:44:34.967Z,98901.53
2023-01-27T06:49:56.659Z,98903.44
2023-01-27T06:55:19.404Z,98922.91
2023-01-27T07:00:41.646Z,98919.44
2023-01-27T07:06:03.519Z,98928.81
2023-01-27T07:11:25.359Z,98943.31
2023-01-27T07:16:47.656Z,98949.47
2023-01-27T07:22:09.383Z,98946.84
2023-01-27T07:27:31.088Z,98958.09
2023-01-27T07:32:54.494Z,98955.31
2023-01-27T07:38:16.264Z,98958.09
2023-01-27T07:43:37.971Z,98962.19
2023-01-27T07:48:59.709Z,98969.22
2023-01-27T07:54:21.508Z,98969.97
2023-01-27T07:59:43.225Z,98978.28
2023-01-27T08:05:05.189Z,98983.00
2023-01-27T08:10:27.026Z,98978.69
2023-01-27T08:15:55.660Z,98983.78
2023-01-27T08:21:17.394Z,98987.84
2023-01-27T08:26:39.143Z,98992.28
2023-01-27T08:32:00.875Z,98996.47
2023-01-27T08:37:22.583Z,98996.69
2023-01-27T08:42:44.367Z,99016.34
2023-01-27T08:48:06.810Z,99003.09
2023-01-27T08:53:29.169Z,99016.91
2023-01-27T08:58:52.388Z,99017.97
2023-01-27T09:04:14.229Z,99036.19
2023-01-27T09:09:35.942Z,99028.56
2023-01-27T09:14:58.246Z,99016.97
2023-01-27T09:20:20.126Z,99025.91
2023-01-27T09:25:41.921Z,99019.53
2023-01-27T09:31:03.743Z,99015.91
2023-01-27T09:36:27.411Z,99014.94
2023-01-27T09:42:02.861Z,99025.63
2023-01-27T09:47:33.490Z,99028.16
2023-01-27T09:53:17.745Z,99022.91
2023-01-27T09:59:08.248Z,99032.34
2023-01-27T10:04:49.976Z,99038.50
2023-01-27T10:10:33.266Z,99034.38
2023-01-27T10:16:19.458Z,99025.19
2023-01-27T10:22:13.481Z,99024.34
2023-01-27T10:27:43.206Z,99023.44
2023-01-27T10:33:14.131Z,99027.81
2023-01-27T10:38:38.870Z,99031.16
2023-01-27T10:44:25.449Z,99031.03
2023-01-27T10:49:53.666Z,99033.44
2023-01-27T10:55:21.928Z,99042.31
2023-01-27T11:06:35.376Z,99028.41
2023-01-27T11:12:02.742Z,99029.25
2023-01-27T11:17:32.062Z,99029.13
2023-01-27T11:23:00.018Z,99023.97
2023-01-27T11:28:21.660Z,99026.41
2023-01-27T11:34:11.384Z,99022.06
2023-01-27T11:39:33.847Z,99013.53
2023-01-27T11:44:57.580Z,99004.03
2023-01-27T11:50:21.934Z,99011.97
2023-01-27T11:55:50.324Z,99004.91
2023-01-27T12:01:19.962Z,98996.31
2023-01-27T12:06:48.983Z,98994.78
2023-01-27T12:12:14.971Z,98997.16
2023-01-27T12:17:47.592Z,98994.50
2023-01-27T12:23:32.078Z,98986.91
2023-01-27T12:28:54.857Z,98978.13
2023-01-27T12:34:34.000Z,98972.09
2023-01-27T12:40:01.608Z,98978.91
2023-01-27T12:45:26.866Z,98981.16
2023-01-27T12:50:51.321Z,98981.25
2023-01-27T12:56:16.427Z,98970.13
2023-01-27T13:01:41.257Z,98980.66
2023-01-27T13:07:02.951Z,98975.59
2023-01-27T13:12:30.801Z,98971.38
2023-01-27T13:17:54.932Z,98975.41
2023-01-27T13:23:31.325Z,98973.88
2023-01-27T13:29:15.484Z,98975.63
2023-01-27T13:34:53.040Z,98980.66
2023-01-27T13:40:22.518Z,98985.81
2023-01-27T13:45:57.475Z,99000.47
2023-01-27T13:51:25.255Z,99000.50
2023-01-27T13:57:07.711Z,99005.59
2023-01-27T14:03:07.547Z,99007.59
2023-01-27T14:08:49.459Z,99009.13
2023-01-27T14:14:37.296Z,99023.78
2023-01-27T14:20:18.166Z,99021.03
2023-01-27T14:26:01.592Z,99023.84
2023-01-27T14:31:47.507Z,99023.84
2023-01-27T14:37:34.203Z,99022.94
2023-01-27T14:42:55.852Z,99030.69
2023-01-27T14:48:23.666Z,99034.97
2023-01-27T14:54:13.673Z,99033.31
2023-01-27T14:59:44.299Z,99029.91
2023-01-27T15:05:27.514Z,99027.16
2023-01-27T15:11:25.293Z,99024.72
2023-01-27T15:17:05.678Z,99023.63
2023-01-27T15:22:51.982Z,99028.72
2023-01-27T15:28:17.985Z,99030.78
2023-01-27T15:33:53.438Z,99036.53
2023-01-27T15:39:20.192Z,99026.06
2023-01-27T15:45:01.589Z,99030.38
2023-01-27T15:50:27.516Z,99038.88
2023-01-27T15:55:53.366Z,99050.94
2023-01-27T16:01:32.027Z,99064.06
2023-01-27T16:07:02.953Z,99073.56
2023-01-27T16:12:26.931Z,99082.16
2023-01-27T16:18:06.888Z,99089.22
2023-01-27T16:23:44.701Z,99093.28
2023-01-27T16:29:29.558Z,99099.16
2023-01-27T16:35:02.060Z,99101.59
2023-01-27T16:40:24.491Z,99102.47
2023-01-27T16:45:51.925Z,99103.09
2023-01-27T16:51:18.639Z,99107.53
2023-01-27T16:56:40.721Z,99109.25
2023-01-27T17:02:19.642Z,99105.91
2023-01-27T17:07:41.475Z,99111.84
2023-01-27T17:13:03.275Z,99110.25
2023-01-27T17:18:25.881Z,99116.94
2023-01-27T17:23:49.330Z,99117.09
2023-01-27T17:29:20.978Z,99112.56
2023-01-27T17:34:42.816Z,99121.97
2023-01-27T17:40:15.317Z,99124.56
2023-01-27T17:45:37.925Z,99132.56
2023-01-27T17:50:59.744Z,99130.16
2023-01-27T17:56:27.044Z,99130.81
2023-01-27T18:01:53.483Z,99137.72
2023-01-27T18:07:15.636Z,99139.63
2023-01-27T18:12:37.945Z,99137.00
2023-01-27T18:18:19.916Z,99142.19
2023-01-27T18:23:56.409Z,99141.31
2023-01-27T18:29:37.337Z,99138.59
2023-01-27T18:34:59.767Z,99140.22
2023-01-27T18:40:30.361Z,99134.91
2023-01-27T18:45:52.179Z,99140.34
2023-01-27T18:51:15.507Z,99141.97
2023-01-27T18:56:37.318Z,99149.44
2023-01-27T19:02:00.292Z,99155.63
2023-01-27T19:07:22.150Z,99158.34
2023-01-27T19:12:44.045Z,99152.22
2023-01-27T19:18:20.847Z,99152.22
2023-01-27T19:23:44.455Z,99152.09
2023-01-27T19:29:06.409Z,99153.81
2023-01-27T19:34:28.161Z,99159.81
2023-01-27T19:39:49.963Z,99164.06
2023-01-27T19:45:14.913Z,99152.97
2023-01-27T19:50:36.887Z,99159.81
2023-01-27T19:55:59.197Z,99165.03
2023-01-27T20:01:24.997Z,99177.75
2023-01-27T20:06:46.861Z,99181.16
2023-01-27T20:12:14.428Z,99178.63
2023-01-27T20:17:37.762Z,99173.53
2023-01-27T20:22:59.615Z,99179.41
2023-01-27T20:28:21.879Z,99176.19
2023-01-27T20:33:43.884Z,99183.09
2023-01-27T20:39:05.682Z,99189.16
2023-01-27T20:44:27.537Z,99192.38
2023-01-27T20:49:50.409Z,99186.25
2023-01-27T20:55:13.727Z,99190.38
2023-01-27T21:00:35.622Z,99193.25
2023-01-27T21:05:57.371Z,99195.84
2023-01-27T21:11:21.246Z,99195.84
2023-01-27T21:16:43.078Z,99211.16
2023-01-27T21:22:04.869Z,99211.22
2023-01-27T21:27:27.132Z,99217.41
2023-01-27T21:32:49.007Z,99212.22
2023-01-27T21:38:10.886Z,99211.16
2023-01-27T21:43:55.987Z,99211.22
2023-01-27T21:49:17.743Z,99203.53
2023-01-27T21:54:39.671Z,99201.72
2023-01-27T22:00:01.676Z,99200.91
2023-01-27T22:05:24.630Z,99195.75
2023-01-27T22:10:46.375Z,99193.16
2023-01-27T22:16:13.922Z,99190.56
2023-01-27T22:21:35.646Z,99185.50
2023-01-27T22:26:57.381Z,99194.00
2023-01-27T22:32:19.149Z,99196.50
2023-01-27T22:37:41.999Z,99204.38
2023-01-27T22:43:09.232Z,99209.47
2023-01-27T22:48:31.066Z,99204.97
2023-01-27T22:53:52.776Z,99191.34
2023-01-27T22:59:14.677Z,99202.38
2023-01-27T23:04:36.408Z,99199.94
2023-01-27T23:09:58.209Z,99192.00
2023-01-27T23:15:19.907Z,99202.38
2023-01-27T23:20:42.411Z,99209.25
2023-01-27T23:26:08.759Z,99195.72
2023-01-27T23:31:30.605Z,99197.59
2023-01-27T23:36:52.395Z,99193.25
2023-01-27T23:42:15.353Z,99197.50
2023-01-27T23:47:37.146Z,99203.47
2023-01-27T23:52:58.892Z,99200.25
2023-01-27T23:58:20.879Z,99204.50
